Bei Facebook empfehlenBei Twitter postenGoogle plusPinterest

Das Wetter im Erzgebirge am 09.07.2015

Wetter und Klima am 09.07.2015 Holzhau im Erzgebirge (630m ü.NN)
Letzte gemessene Temperatur und Uhrzeit der Messung23:45:00 Uhr8.80 °C
Temperatur (Maximum / Höchstwert) und Uhrzeit der Messung17:15:00 Uhr16.60 °C
Temperatur (Minimum / Tiefstwert) und Uhrzeit der Messung23:45:008.80 °C
Errechneter Absolutwert der Temperaturschwankungen zwischen Tmin und Tmax des Tages7.80 K
Errechnete Tagesmitteltemperatur13.27292 °C
Gesamt - Niederschlag des Tages (in flüssiger Form)3.11 Liter / m²
Luftdruck (Maximum / Höchstwert) und Zeitpunkt der Messung23:45:00 Uhr1019.20 hPa
Luftdruck (Minimum / Tiefstwert) und Zeitpunkt der Messung05:00:00 Uhr1010.70 hPa
Errechneter Absolutwert der Luftdruckschwankungen des Tages8.50 hPa
Höchste gemessene Windgeschwindigkeit und Uhrzeit der Messung07:45:00 Uhr26.64 km/h
Errechnete Windhäufigkeit in Relation zu den Messwerten des Tages19.79167 %
Niedrigste Windkühle (Windchill) und Zeitpunkt der Messung23:45:00 Uhr8.80 °C
Taupunkt (Maximum / Höchstwert) und Uhrzeit der Messung09:00:00 Uhr11.00 °C
Taupunkt (Minimum / Tiefstwert) und Uhrzeit der Messung23:45:005.20 °C
Anzahl der automatisch eingelesenen Messwerte 96

Detaillierte Wetter- und Klima- Messwerte für den 09.07.2015 in Holzhau im Erzgebirge (630m ü.NN)
ZeitTemperaturLuftdruckRel. LuftfeuchteWindWindrichtungWindchillTaupunktNiederschlag l/m²
23:45:008.80 °C1019.20 hPa78.00 %5.20 °C3.11
23:30:009.20 °C1019.10 hPa78.00 %5.60 °C3.11
23:15:009.50 °C1019.20 hPa77.00 %5.70 °C3.11
23:00:009.80 °C1018.90 hPa76.00 %5.80 °C3.11
22:45:0010.00 °C1019.00 hPa75.00 %5.80 °C3.11
22:30:0010.20 °C1018.90 hPa74.00 %5.80 °C3.11
22:15:0010.20 °C1018.80 hPa74.00 %5.80 °C3.11
22:00:0010.60 °C1018.80 hPa72.00 %5.80 °C3.11
21:45:0011.20 °C1018.40 hPa70.00 %5.90 °C3.11
21:30:0011.60 °C1018.40 hPa70.00 %6.30 °C3.11
21:15:0011.60 °C1017.90 hPa69.00 %6.10 °C3.11
21:00:0011.80 °C1017.60 hPa67.00 %5.90 °C3.11
20:45:0011.90 °C1017.40 hPa67.00 %6.00 °C3.11
20:30:0012.30 °C1017.40 hPa66.00 %6.10 °C3.11
20:15:0012.60 °C1017.30 hPa65.00 %6.20 °C3.11
20:00:0012.80 °C1017.20 hPa63.00 %5.90 °C3.11
19:45:0013.20 °C1017.20 hPa61.00 %5.90 °C3.11
19:30:0013.40 °C1017.10 hPa61.00 %6.00 °C3.11
19:15:0013.90 °C1016.80 hPa57.00 %5.50 °C3.11
19:00:0014.70 °C1016.60 hPa56.00 %6.00 °C3.11
18:45:0015.40 °C1016.70 hPa54.00 %6.10 °C3.11
18:30:0015.30 °C1016.50 hPa55.00 %6.30 °C3.11
18:15:0015.00 °C1016.20 hPa56.00 %4.32 km/hWNW15.00 °C6.30 °C3.11
18:00:0015.80 °C1016.30 hPa53.00 %6.30 °C3.11
17:45:0015.90 °C1016.20 hPa52.00 %6.48 km/hWNW16.20 °C6.10 °C3.11
17:30:0015.30 °C1016.10 hPa54.00 %9.36 km/hN15.00 °C6.10 °C3.11
17:15:0016.60 °C1016.00 hPa52.00 %6.70 °C3.11
17:00:0016.00 °C1015.90 hPa54.00 %6.70 °C3.11
16:45:0014.70 °C1015.90 hPa62.00 %7.50 °C3.11
16:30:0014.90 °C1016.00 hPa60.00 %11.88 km/hNNW14.30 °C7.20 °C3.11
16:15:0015.10 °C1016.00 hPa58.00 %6.90 °C3.11
16:00:0014.40 °C1015.90 hPa59.00 %6.50 °C3.11
15:45:0014.50 °C1015.80 hPa63.00 %7.92 km/hWNW14.30 °C7.50 °C3.11
15:30:0014.30 °C1015.80 hPa63.00 %7.40 °C3.11
15:15:0015.50 °C1015.50 hPa62.00 %8.30 °C3.11
15:00:0014.40 °C1015.50 hPa65.00 %7.90 °C3.11
14:45:0015.40 °C1015.40 hPa62.00 %8.20 °C3.11
14:30:0015.60 °C1015.20 hPa62.00 %8.40 °C3.11
14:15:0015.60 °C1015.00 hPa64.00 %8.80 °C3.11
14:00:0014.80 °C1015.00 hPa64.00 %8.10 °C3.11
13:45:0015.30 °C1014.80 hPa64.00 %8.50 °C3.11
13:30:0014.70 °C1014.70 hPa68.00 %12.60 km/hNNW13.90 °C8.90 °C3.11
13:15:0014.70 °C1014.60 hPa71.00 %9.50 °C3.11
13:00:0014.80 °C1014.70 hPa70.00 %9.40 °C3.11
12:45:0014.40 °C1014.50 hPa74.00 %9.80 °C3.11
12:30:0013.70 °C1014.30 hPa80.00 %10.30 °C3.11
12:15:0013.00 °C1014.10 hPa82.00 %10.00 °C3.11
12:00:0012.80 °C1014.00 hPa83.00 %10.00 °C3.11
11:45:0012.10 °C1014.00 hPa84.00 %9.50 °C3.11
11:30:0011.80 °C1014.10 hPa87.00 %9.70 °C3.11
11:15:0010.10 °C1014.20 hPa88.00 %8.20 °C3.11
11:00:009.50 °C1014.20 hPa87.00 %7.40 °C3.11
10:45:009.30 °C1014.20 hPa86.00 %7.10 °C3.11
10:30:0010.20 °C1014.00 hPa83.00 %7.40 °C2.59
10:15:0012.50 °C1013.20 hPa83.00 %10.80 km/hWNW11.50 °C9.70 °C1.04
10:00:0013.00 °C1012.00 hPa81.00 %9.80 °C0.52
09:45:0013.80 °C1011.90 hPa78.00 %14.40 km/hNW12.70 °C10.00 °C 
09:30:0014.40 °C1011.50 hPa75.00 %10.00 °C 
09:15:0015.30 °C1011.60 hPa72.00 %10.30 °C 
09:00:0015.60 °C1011.50 hPa74.00 %5.40 km/hNNW16.00 °C11.00 °C 
08:45:0014.30 °C1011.30 hPa80.00 %10.90 °C 
08:30:0013.40 °C1011.50 hPa81.00 %10.20 °C 
08:15:0012.90 °C1011.70 hPa81.00 %9.70 °C 
08:00:0013.40 °C1011.60 hPa78.00 %9.60 °C 
07:45:0014.80 °C1011.60 hPa75.00 %26.64 km/hSSW13.00 °C10.40 °C 
07:30:0014.80 °C1011.50 hPa76.00 %10.08 km/hSW14.40 °C10.60 °C 
07:15:0013.60 °C1011.30 hPa79.00 %10.00 °C 
07:00:0013.40 °C1011.20 hPa78.00 %9.60 °C 
06:45:0013.30 °C1011.30 hPa80.00 %9.00 km/hWNW12.70 °C9.90 °C 
06:30:0012.60 °C1011.30 hPa81.00 %13.32 km/hW11.30 °C9.40 °C 
06:15:0011.90 °C1011.20 hPa82.00 %8.90 °C 
06:00:0011.80 °C1011.20 hPa81.00 %8.60 °C 
05:45:0011.90 °C1011.20 hPa80.00 %8.60 °C 
05:30:0012.10 °C1011.00 hPa79.00 %1.08 km/hNW12.10 °C8.60 °C 
05:15:0012.50 °C1010.80 hPa79.00 %4.32 km/hSW12.50 °C9.00 °C 
05:00:0012.70 °C1010.70 hPa78.00 %9.36 km/hSSW12.00 °C9.00 °C 
04:45:0012.70 °C1010.90 hPa78.00 %9.00 °C 
04:30:0012.90 °C1010.80 hPa77.00 %15.84 km/hSW11.40 °C9.00 °C 
04:15:0013.10 °C1010.80 hPa76.00 %9.00 °C 
04:00:0013.20 °C1010.80 hPa75.00 %8.90 °C 
03:45:0013.30 °C1010.70 hPa74.00 %8.80 °C 
03:30:0013.50 °C1010.80 hPa74.00 %9.00 °C 
03:15:0013.60 °C1010.90 hPa73.00 %8.90 °C 
03:00:0013.60 °C1011.10 hPa73.00 %8.90 °C 
02:45:0013.60 °C1011.20 hPa73.00 %8.90 °C 
02:30:0013.60 °C1011.00 hPa72.00 %8.70 °C 
02:15:0013.30 °C1011.30 hPa72.00 %8.40 °C 
02:00:0013.30 °C1011.30 hPa71.00 %8.20 °C 
01:45:0013.40 °C1011.20 hPa69.00 %7.80 °C 
01:30:0013.80 °C1011.30 hPa68.00 %8.00 °C 
01:15:0014.10 °C1011.30 hPa67.00 %8.10 °C 
01:00:0014.10 °C1011.40 hPa67.00 %6.48 km/hSSW14.10 °C8.10 °C 
00:45:0014.10 °C1011.50 hPa67.00 %8.10 °C 
00:30:0013.80 °C1011.30 hPa67.00 %7.80 °C 
00:15:0013.60 °C1011.40 hPa67.00 %2.88 km/hSW13.60 °C7.60 °C 
00:00:0013.40 °C1011.40 hPa67.00 %7.40 °C 

Permanenter Link zu dieser Seite: Wetter im Erzgebirge am 09.07.2015
Performance-Info: Die Erstellung der Seite / Statistik(en) / Tabelle(n) erforderte 5 Datenbankserver-Abfrage(n) und dauerte 101 Millisekunden. (Dieser Messwert ist von der Gesamt-Auslastung des Servers abhängig.)
Erzgebirge - Wetter | Erzgebirge - Wetter (Mobilgeräte) | Komplette Klimadatenbank